createdAt,value
2018-02-19T00:02:13.605Z,92.77
2018-02-19T00:04:41.954Z,66.17
2018-02-19T00:07:10.488Z,71.40
2018-02-19T00:09:38.856Z,73.60
2018-02-19T00:12:07.388Z,74.33
2018-02-19T00:14:35.772Z,65.80
2018-02-19T00:17:04.094Z,71.47
2018-02-19T00:19:32.441Z,47.07
2018-02-19T00:22:00.862Z,72.20
2018-02-19T00:24:31.140Z,60.30
2018-02-19T00:26:59.530Z,61.77
2018-02-19T00:29:27.872Z,52.83
2018-02-19T00:31:56.226Z,57.10
2018-02-19T00:34:24.660Z,49.27
2018-02-19T00:36:53.009Z,56.17
2018-02-19T00:39:21.349Z,78.60
2018-02-19T00:41:49.687Z,76.87
2018-02-19T00:44:18.079Z,69.70
2018-02-19T00:46:46.424Z,96.87
2018-02-19T00:49:14.825Z,72.87
2018-02-19T00:51:43.212Z,65.63
2018-02-19T00:54:11.591Z,72.57
2018-02-19T00:56:39.972Z,65.67
2018-02-19T00:59:08.309Z,71.67
2018-02-19T01:01:36.653Z,67.70
2018-02-19T01:04:04.997Z,85.50
2018-02-19T01:06:33.390Z,65.23
2018-02-19T01:09:01.781Z,65.63
2018-02-19T01:11:30.100Z,73.87
2018-02-19T01:13:58.448Z,64.20
2018-02-19T01:16:26.776Z,66.93
2018-02-19T01:18:55.983Z,55.93
2018-02-19T01:21:24.372Z,68.07
2018-02-19T01:23:52.743Z,55.30
2018-02-19T01:26:21.115Z,69.07
2018-02-19T01:28:49.473Z,75.07
2018-02-19T01:31:17.853Z,67.17
2018-02-19T01:33:46.213Z,67.27
2018-02-19T01:36:14.562Z,68.00
2018-02-19T01:38:43.234Z,66.87
2018-02-19T01:41:11.571Z,61.83
2018-02-19T01:43:39.904Z,65.93
2018-02-19T01:46:08.245Z,68.00
2018-02-19T01:48:36.569Z,53.87
2018-02-19T01:51:04.916Z,56.07
2018-02-19T01:53:33.260Z,60.00
2018-02-19T01:56:01.616Z,66.43
2018-02-19T01:58:29.943Z,50.57
2018-02-19T02:00:58.287Z,57.83
2018-02-19T02:03:26.625Z,66.20
2018-02-19T02:05:54.960Z,53.63
2018-02-19T02:08:23.280Z,48.50
2018-02-19T02:10:51.609Z,54.50
2018-02-19T02:13:19.936Z,56.13
2018-02-19T02:15:48.299Z,61.13
2018-02-19T02:18:16.633Z,57.67
2018-02-19T02:20:45.057Z,54.20
2018-02-19T02:23:13.389Z,58.00
2018-02-19T02:25:41.866Z,57.37
2018-02-19T02:28:10.192Z,60.10
2018-02-19T02:30:38.531Z,60.50
2018-02-19T02:33:06.884Z,55.83
2018-02-19T02:35:35.220Z,65.70
2018-02-19T02:38:03.555Z,54.03
2018-02-19T02:40:31.919Z,58.77
2018-02-19T02:43:00.274Z,51.07
2018-02-19T02:45:28.652Z,58.60
2018-02-19T02:47:57.016Z,42.93
2018-02-19T02:50:25.363Z,46.43
2018-02-19T02:52:53.723Z,45.37
2018-02-19T02:55:22.012Z,43.00
2018-02-19T02:57:50.332Z,43.47
2018-02-19T03:00:18.678Z,54.73
2018-02-19T03:02:47.050Z,59.63
2018-02-19T03:05:16.057Z,41.30
2018-02-19T03:07:44.392Z,29.03
2018-02-19T03:10:12.740Z,30.97
2018-02-19T03:12:41.112Z,41.77
2018-02-19T03:15:09.430Z,43.30
2018-02-19T03:17:37.789Z,49.90
2018-02-19T03:20:06.176Z,40.57
2018-02-19T03:22:34.532Z,42.10
2018-02-19T03:25:02.908Z,49.53
2018-02-19T03:27:31.351Z,53.63
2018-02-19T03:29:59.766Z,46.87
2018-02-19T03:32:28.100Z,44.60
2018-02-19T03:34:56.443Z,45.40
2018-02-19T03:37:24.768Z,48.70
2018-02-19T03:39:53.105Z,41.20
2018-02-19T03:42:21.453Z,46.27
2018-02-19T03:44:49.811Z,38.43
2018-02-19T03:47:18.130Z,37.43
2018-02-19T03:49:46.483Z,40.17
2018-02-19T03:52:14.899Z,34.80
2018-02-19T03:54:43.266Z,34.47
2018-02-19T03:57:11.652Z,48.07
2018-02-19T03:59:39.991Z,39.40
2018-02-19T04:02:08.948Z,41.93
2018-02-19T04:04:37.320Z,38.40
2018-02-19T04:07:05.706Z,36.10
2018-02-19T04:09:34.048Z,38.23
2018-02-19T04:12:02.408Z,38.30
2018-02-19T04:14:30.746Z,28.70
2018-02-19T04:16:59.118Z,23.73
2018-02-19T04:19:27.469Z,20.07
2018-02-19T04:21:55.854Z,23.20
2018-02-19T04:24:24.186Z,30.30
2018-02-19T04:26:52.602Z,31.80
2018-02-19T04:29:20.921Z,42.27
2018-02-19T04:31:49.250Z,21.13
2018-02-19T04:34:17.654Z,35.93
2018-02-19T04:36:46.033Z,25.03
2018-02-19T04:39:14.389Z,38.13
2018-02-19T04:41:42.756Z,29.23
2018-02-19T04:47:20.520Z,37.50
2018-02-19T04:49:48.867Z,40.20
2018-02-19T04:52:17.216Z,38.37
2018-02-19T04:54:45.576Z,51.60
2018-02-19T04:57:13.982Z,23.73
2018-02-19T04:59:42.396Z,29.00
2018-02-19T05:02:10.764Z,31.70
2018-02-19T05:04:39.103Z,37.03
2018-02-19T05:07:07.428Z,30.13
2018-02-19T05:09:35.777Z,29.37
2018-02-19T05:12:04.139Z,36.37
2018-02-19T05:14:32.467Z,31.83
2018-02-19T05:17:00.820Z,35.83
2018-02-19T05:19:29.144Z,35.10
2018-02-19T05:21:57.522Z,37.77
2018-02-19T05:24:25.861Z,36.40
2018-02-19T05:26:54.230Z,21.23
2018-02-19T05:29:22.556Z,30.40
2018-02-19T05:31:50.895Z,35.93
2018-02-19T05:34:19.335Z,31.60
2018-02-19T05:36:47.678Z,27.97
2018-02-19T05:39:16.037Z,37.67
2018-02-19T05:41:44.425Z,14.50
2018-02-19T05:44:12.927Z,33.37
2018-02-19T05:46:43.229Z,30.53
2018-02-19T05:49:11.584Z,38.40
2018-02-19T05:51:40.691Z,29.00
2018-02-19T05:54:09.041Z,34.30
2018-02-19T05:56:37.387Z,35.70
2018-02-19T05:59:05.773Z,33.73
2018-02-19T06:01:34.106Z,35.50
2018-02-19T06:04:02.471Z,31.47
2018-02-19T06:06:30.829Z,30.30
2018-02-19T06:08:59.181Z,36.10
2018-02-19T06:11:27.560Z,23.07
2018-02-19T06:13:55.957Z,47.73
2018-02-19T06:16:24.356Z,34.53
2018-02-19T06:18:52.723Z,40.90
2018-02-19T06:21:21.057Z,36.83
2018-02-19T06:23:49.426Z,42.13
2018-02-19T06:26:17.758Z,31.40
2018-02-19T06:28:46.115Z,44.43
2018-02-19T06:31:14.501Z,31.43
2018-02-19T06:33:42.871Z,41.43
2018-02-19T06:36:11.947Z,40.90
2018-02-19T06:38:40.600Z,34.03
2018-02-19T06:41:08.941Z,44.60
2018-02-19T06:43:37.380Z,32.67
2018-02-19T06:46:05.782Z,38.23
2018-02-19T06:48:34.299Z,57.53
2018-02-19T06:51:02.949Z,43.30
2018-02-19T06:53:34.449Z,46.80
2018-02-19T06:56:02.987Z,49.07
2018-02-19T06:58:31.382Z,82.77
2018-02-19T07:00:59.788Z,57.23
2018-02-19T07:03:28.171Z,48.70
2018-02-19T07:05:56.576Z,54.97
2018-02-19T07:08:28.630Z,53.10
2018-02-19T07:10:57.024Z,48.87
2018-02-19T07:13:25.452Z,54.20
2018-02-19T07:15:53.829Z,50.73
2018-02-19T07:18:23.576Z,49.70
2018-02-19T07:20:52.020Z,51.83
2018-02-19T07:23:20.380Z,43.03
2018-02-19T07:25:48.739Z,55.30
2018-02-19T07:28:17.082Z,50.37
2018-02-19T07:30:45.506Z,52.95
2018-02-19T07:33:14.107Z,53.47
2018-02-19T07:35:42.442Z,49.37
2018-02-19T07:38:11.111Z,55.10
2018-02-19T07:40:39.478Z,59.17
2018-02-19T07:43:07.847Z,57.27
2018-02-19T07:45:36.200Z,58.00
2018-02-19T07:48:04.594Z,47.60
2018-02-19T07:50:33.134Z,60.43
2018-02-19T07:53:01.483Z,53.87
2018-02-19T07:55:29.853Z,52.53
2018-02-19T07:57:58.475Z,66.00
2018-02-19T08:00:26.878Z,55.87
2018-02-19T08:02:55.376Z,60.93
2018-02-19T08:05:23.797Z,59.30
2018-02-19T08:07:54.071Z,70.37
2018-02-19T08:10:22.509Z,54.43
2018-02-19T08:12:51.346Z,49.40
2018-02-19T08:15:19.735Z,56.67
2018-02-19T08:17:48.213Z,53.10
2018-02-19T08:20:16.966Z,54.40
2018-02-19T08:22:45.397Z,61.77
2018-02-19T08:25:13.764Z,66.77
2018-02-19T08:27:42.227Z,67.80
2018-02-19T08:30:10.646Z,63.80
2018-02-19T08:32:43.326Z,57.20
2018-02-19T08:35:11.689Z,57.17
2018-02-19T08:37:40.038Z,66.43
2018-02-19T08:40:08.691Z,59.73
2018-02-19T08:42:37.994Z,73.37
2018-02-19T08:45:06.366Z,71.07
2018-02-19T08:47:34.866Z,56.63
2018-02-19T08:50:03.637Z,69.67
2018-02-19T08:52:32.044Z,60.53
2018-02-19T08:55:00.456Z,60.57
2018-02-19T08:57:28.828Z,59.17
2018-02-19T08:59:57.198Z,60.27
2018-02-19T09:02:25.564Z,69.23
2018-02-19T09:04:54.549Z,70.50
2018-02-19T09:07:23.258Z,58.53
2018-02-19T09:09:51.633Z,66.60
2018-02-19T09:12:19.994Z,60.17
2018-02-19T09:14:48.438Z,61.13
2018-02-19T09:17:17.784Z,63.67
2018-02-19T09:19:46.298Z,62.57
2018-02-19T09:22:14.804Z,72.07
2018-02-19T09:24:43.222Z,64.73
2018-02-19T09:27:12.137Z,75.47
2018-02-19T09:29:40.539Z,65.97
2018-02-19T09:32:09.157Z,58.90
2018-02-19T09:34:37.590Z,63.40
2018-02-19T09:37:06.013Z,70.83
2018-02-19T09:42:07.124Z,61.20
2018-02-19T09:44:35.669Z,51.53
2018-02-19T09:47:04.085Z,65.30
2018-02-19T09:49:32.570Z,57.50
2018-02-19T09:52:01.443Z,54.60
2018-02-19T09:54:29.800Z,64.57
2018-02-19T09:56:58.256Z,62.27
2018-02-19T09:59:26.698Z,56.20
2018-02-19T10:01:55.398Z,52.87
2018-02-19T10:04:23.824Z,55.40
2018-02-19T10:06:52.320Z,57.90
2018-02-19T10:09:20.701Z,53.10
2018-02-19T10:11:51.138Z,58.07
2018-02-19T10:14:19.500Z,57.50
2018-02-19T10:16:47.847Z,52.87
2018-02-19T10:19:16.323Z,60.77
2018-02-19T10:21:44.684Z,42.90
2018-02-19T10:24:13.142Z,58.07
2018-02-19T10:26:41.590Z,48.30
2018-02-19T10:29:10.012Z,56.33
2018-02-19T10:31:38.449Z,64.77
2018-02-19T10:34:08.396Z,67.63
2018-02-19T10:36:36.778Z,71.37
2018-02-19T10:39:07.835Z,57.77
2018-02-19T10:44:08.972Z,66.40
2018-02-19T10:46:37.780Z,61.20
2018-02-19T10:51:38.682Z,44.47
2018-02-19T10:56:39.586Z,60.43
2018-02-19T10:59:08.632Z,62.87
2018-02-19T11:01:36.992Z,58.03
2018-02-19T11:04:06.035Z,58.03
2018-02-19T11:06:34.626Z,57.50
2018-02-19T11:09:03.071Z,59.00
2018-02-19T11:11:31.455Z,52.80
2018-02-19T11:13:59.859Z,57.33
2018-02-19T11:16:28.377Z,54.20
2018-02-19T11:18:56.817Z,65.23
2018-02-19T11:21:27.367Z,51.47
2018-02-19T11:23:55.688Z,68.13
2018-02-19T11:26:24.046Z,59.80
2018-02-19T11:28:52.731Z,63.23
2018-02-19T11:31:21.802Z,51.53
2018-02-19T11:33:50.281Z,60.10
2018-02-19T11:36:18.647Z,59.97
2018-02-19T11:38:55.316Z,60.83
2018-02-19T11:41:18.844Z,62.30
2018-02-19T11:43:47.353Z,58.40
2018-02-19T11:48:49.204Z,49.43
2018-02-19T11:53:50.518Z,64.30
2018-02-19T11:56:19.136Z,69.57
2018-02-19T11:58:48.029Z,64.50
2018-02-19T12:01:16.681Z,63.87
2018-02-19T12:03:48.526Z,62.43
2018-02-19T12:06:17.059Z,79.07
2018-02-19T12:11:19.997Z,64.20
2018-02-19T12:13:48.440Z,57.43
2018-02-19T12:16:18.713Z,58.27
2018-02-19T12:18:47.423Z,59.47
2018-02-19T12:21:15.933Z,60.83
2018-02-19T12:23:50.266Z,59.80
2018-02-19T12:26:19.782Z,76.03
2018-02-19T12:28:48.883Z,71.93
2018-02-19T12:33:50.624Z,51.23
2018-02-19T12:36:20.815Z,57.77
2018-02-19T12:41:21.748Z,59.03
2018-02-19T12:43:50.218Z,61.03
2018-02-19T12:46:19.181Z,59.13
2018-02-19T12:48:48.831Z,56.57
2018-02-19T12:51:17.296Z,64.57
2018-02-19T12:53:45.969Z,63.90
2018-02-19T12:56:14.969Z,54.70
2018-02-19T12:58:43.987Z,56.07
2018-02-19T13:01:12.538Z,63.40
2018-02-19T13:03:40.949Z,64.20
2018-02-19T13:06:09.418Z,56.33
2018-02-19T13:13:42.906Z,65.07
2018-02-19T13:16:11.354Z,55.73
2018-02-19T13:18:39.764Z,46.37
2018-02-19T13:21:08.158Z,63.70
2018-02-19T13:23:37.676Z,52.47
2018-02-19T13:26:06.066Z,58.93
2018-02-19T13:28:34.525Z,61.80
2018-02-19T13:31:03.166Z,70.07
2018-02-19T13:33:31.588Z,61.57
2018-02-19T13:35:59.938Z,53.30
2018-02-19T13:38:28.746Z,66.73
2018-02-19T13:41:00.950Z,55.70
2018-02-19T13:43:48.167Z,56.60
2018-02-19T13:46:16.606Z,58.37
2018-02-19T13:48:44.994Z,55.57
2018-02-19T13:51:13.334Z,57.27
2018-02-19T13:56:14.415Z,57.60
2018-02-19T13:58:42.836Z,49.63
2018-02-19T14:01:11.225Z,74.27
2018-02-19T14:03:39.937Z,58.50
2018-02-19T14:06:08.306Z,60.47
2018-02-19T14:08:40.381Z,56.50
2018-02-19T14:11:09.198Z,59.37
2018-02-19T14:13:37.689Z,57.93
2018-02-19T14:16:06.695Z,68.10
2018-02-19T14:18:35.835Z,62.10
2018-02-19T14:21:04.193Z,48.43
2018-02-19T14:23:32.568Z,63.83
2018-02-19T14:26:01.759Z,59.93
2018-02-19T14:31:03.116Z,69.67
2018-02-19T14:33:31.512Z,63.43
2018-02-19T14:35:59.876Z,65.03
2018-02-19T14:38:29.046Z,67.07
2018-02-19T14:41:01.903Z,60.13
2018-02-19T14:43:30.474Z,64.17
2018-02-19T14:45:58.931Z,75.00
2018-02-19T14:53:32.752Z,76.43
2018-02-19T15:01:06.589Z,55.23
2018-02-19T15:03:34.971Z,56.03
2018-02-19T15:06:04.305Z,62.03
2018-02-19T15:08:35.313Z,60.03
2018-02-19T15:11:03.763Z,76.00
2018-02-19T15:13:35.135Z,61.93
2018-02-19T15:16:03.957Z,59.10
2018-02-19T15:18:32.484Z,52.27
2018-02-19T15:21:00.893Z,67.87
2018-02-19T15:23:29.386Z,67.10
2018-02-19T15:25:57.796Z,59.90
2018-02-19T15:28:27.062Z,61.73
2018-02-19T15:30:59.699Z,67.63
2018-02-19T15:33:28.102Z,81.23
2018-02-19T15:35:56.564Z,70.17
2018-02-19T15:40:57.438Z,70.43
2018-02-19T15:45:59.913Z,57.80
2018-02-19T15:48:28.414Z,61.53
2018-02-19T15:50:56.841Z,65.63
2018-02-19T15:53:26.987Z,66.60
2018-02-19T15:55:56.229Z,64.43
2018-02-19T15:58:24.624Z,78.30
2018-02-19T16:03:27.860Z,59.30
2018-02-19T16:05:57.786Z,69.23
2018-02-19T16:11:02.395Z,91.13
2018-02-19T16:16:08.201Z,81.30
2018-02-19T16:18:38.993Z,61.73
2018-02-19T16:23:40.356Z,66.43
2018-02-19T16:26:08.852Z,53.13
2018-02-19T16:28:46.078Z,68.57
2018-02-19T16:31:14.647Z,62.67
2018-02-19T16:36:15.726Z,68.43
2018-02-19T16:38:45.397Z,59.50
2018-02-19T16:41:14.265Z,65.00
2018-02-19T16:43:46.300Z,73.20
2018-02-19T16:51:19.709Z,61.13
2018-02-19T16:58:54.789Z,78.47
2018-02-19T17:03:55.886Z,54.37
2018-02-19T17:06:24.500Z,63.27
2018-02-19T17:11:25.606Z,52.37
2018-02-19T17:13:53.955Z,66.20
2018-02-19T17:16:22.643Z,54.27
2018-02-19T17:21:42.580Z,66.77
2018-02-19T17:24:12.275Z,62.70
2018-02-19T17:31:47.010Z,59.43
2018-02-19T17:34:15.555Z,64.37
2018-02-19T17:36:44.049Z,65.60
2018-02-19T17:39:12.437Z,62.03
2018-02-19T17:41:42.838Z,71.97
2018-02-19T17:44:11.212Z,68.63
2018-02-19T17:46:39.727Z,61.97
2018-02-19T17:49:08.139Z,63.30
2018-02-19T17:51:36.753Z,60.10
2018-02-19T17:56:39.849Z,60.37
2018-02-19T18:01:41.116Z,58.20
2018-02-19T18:04:09.506Z,59.90
2018-02-19T18:06:42.615Z,63.00
2018-02-19T18:09:11.033Z,58.17
2018-02-19T18:11:39.507Z,67.97
2018-02-19T18:14:07.900Z,64.60
2018-02-19T18:16:39.809Z,60.00
2018-02-19T18:19:08.186Z,59.70
2018-02-19T18:21:36.657Z,63.70
2018-02-19T18:29:18.909Z,60.27
2018-02-19T18:31:47.328Z,68.40
2018-02-19T18:41:54.123Z,61.90
2018-02-19T18:49:28.885Z,53.07
2018-02-19T18:51:57.280Z,65.00
2018-02-19T18:56:59.180Z,62.50
2018-02-19T18:59:28.450Z,59.30
2018-02-19T19:01:56.869Z,58.00
2018-02-19T19:04:25.344Z,60.40
2018-02-19T19:06:54.181Z,56.67
2018-02-19T19:09:34.462Z,53.80
2018-02-19T19:12:02.901Z,66.73
2018-02-19T19:14:31.257Z,77.30
2018-02-19T19:16:59.650Z,56.67
2018-02-19T19:24:33.197Z,63.73
2018-02-19T19:27:03.625Z,65.67
2018-02-19T19:29:32.117Z,62.40
2018-02-19T19:32:00.555Z,61.50
2018-02-19T19:37:01.514Z,67.53
2018-02-19T19:39:30.008Z,73.73
2018-02-19T19:42:00.349Z,70.43
2018-02-19T19:44:28.702Z,68.07
2018-02-19T19:46:57.066Z,73.03
2018-02-19T19:49:25.479Z,58.17
2018-02-19T19:51:53.912Z,60.07
2018-02-19T19:54:22.502Z,61.23
2018-02-19T19:56:51.242Z,69.17
2018-02-19T19:59:19.643Z,72.03
2018-02-19T20:01:48.294Z,71.17
2018-02-19T20:04:16.703Z,71.53
2018-02-19T20:06:45.119Z,67.00
2018-02-19T20:09:13.505Z,68.87
2018-02-19T20:11:42.659Z,68.40
2018-02-19T20:14:11.176Z,74.50
2018-02-19T20:16:39.622Z,62.43
2018-02-19T20:19:08.012Z,75.50
2018-02-19T20:21:36.548Z,74.17
2018-02-19T20:24:04.986Z,65.93
2018-02-19T20:26:33.320Z,74.60
2018-02-19T20:29:01.690Z,91.37
2018-02-19T20:34:02.477Z,81.37
2018-02-19T20:36:30.875Z,80.03
2018-02-19T20:38:59.213Z,82.23
2018-02-19T20:41:27.569Z,71.33
2018-02-19T20:43:56.233Z,73.50
2018-02-19T20:46:24.638Z,68.43
2018-02-19T20:48:53.005Z,73.60
2018-02-19T20:51:23.860Z,69.17
2018-02-19T20:53:52.592Z,80.23
2018-02-19T20:56:20.948Z,81.30
2018-02-19T20:58:49.460Z,80.87
2018-02-19T21:01:17.783Z,82.03
2018-02-19T21:03:46.293Z,82.23
2018-02-19T21:06:14.668Z,68.67
2018-02-19T21:08:43.041Z,79.73
2018-02-19T21:11:11.366Z,80.30
2018-02-19T21:13:39.793Z,101.40
2018-02-19T21:16:08.287Z,72.67
2018-02-19T21:18:36.732Z,75.17
2018-02-19T21:21:05.101Z,70.43
2018-02-19T21:23:33.477Z,68.77
2018-02-19T21:26:02.333Z,69.60
2018-02-19T21:28:30.652Z,67.30
2018-02-19T21:30:59.005Z,77.47
2018-02-19T21:33:27.354Z,80.93
2018-02-19T21:35:55.745Z,72.13
2018-02-19T21:38:24.084Z,87.00
2018-02-19T21:40:52.444Z,78.93
2018-02-19T21:43:20.816Z,83.20
2018-02-19T21:45:49.167Z,76.63
2018-02-19T21:48:17.534Z,77.00
2018-02-19T21:50:45.916Z,81.37
2018-02-19T21:53:14.352Z,67.00
2018-02-19T21:55:42.770Z,64.63
2018-02-19T21:58:11.121Z,63.87
2018-02-19T22:00:39.625Z,64.70
2018-02-19T22:03:08.142Z,62.20
2018-02-19T22:05:36.797Z,71.20
2018-02-19T22:08:05.348Z,81.50
2018-02-19T22:10:33.700Z,72.10
2018-02-19T22:13:02.208Z,78.67
2018-02-19T22:15:30.815Z,62.57
2018-02-19T22:17:59.185Z,81.50
2018-02-19T22:20:27.611Z,75.77
2018-02-19T22:22:55.978Z,78.20
2018-02-19T22:25:24.431Z,59.30
2018-02-19T22:27:52.799Z,53.07
2018-02-19T22:30:21.244Z,59.23
2018-02-19T22:32:49.581Z,68.60
2018-02-19T22:35:17.912Z,75.83
2018-02-19T22:37:46.348Z,65.80
2018-02-19T22:40:14.822Z,74.60
2018-02-19T22:42:43.229Z,70.23
2018-02-19T22:45:11.566Z,54.70
2018-02-19T22:47:40.192Z,58.13
2018-02-19T22:50:08.512Z,57.60
2018-02-19T22:52:36.834Z,66.33
2018-02-19T22:55:05.205Z,63.03
2018-02-19T22:57:33.543Z,59.20
2018-02-19T23:00:02.043Z,59.17
2018-02-19T23:02:30.380Z,58.10
2018-02-19T23:04:58.810Z,58.37
2018-02-19T23:07:27.135Z,69.50
2018-02-19T23:09:55.561Z,59.47
2018-02-19T23:12:23.888Z,57.97
2018-02-19T23:14:52.211Z,52.27
2018-02-19T23:17:20.542Z,45.20
2018-02-19T23:19:48.898Z,44.20
2018-02-19T23:22:17.245Z,54.67
2018-02-19T23:24:45.601Z,53.63
2018-02-19T23:27:14.099Z,48.23
2018-02-19T23:29:42.425Z,41.27
2018-02-19T23:32:10.818Z,48.43
2018-02-19T23:34:39.163Z,50.43
2018-02-19T23:37:07.551Z,42.20
2018-02-19T23:39:35.887Z,39.73
2018-02-19T23:42:04.348Z,47.80
2018-02-19T23:44:32.671Z,48.60
2018-02-19T23:47:01.027Z,55.83
2018-02-19T23:49:29.426Z,58.67
2018-02-19T23:51:57.747Z,46.13
2018-02-19T23:54:35.023Z,53.47
2018-02-19T23:57:03.431Z,57.30
2018-02-19T23:59:31.889Z,55.37
